EGYP

Mount Pleasant Airport

Mount Pleasant, Falkland Islands
METAR EGYP 241050Z 24014KT 9999 FEW006 FEW014CB SCT018 00/M00 Q1004 RESHSN WHT TEMPO 1000 SHSN SCT012CB AMB
Observed Flight Rules
Sep-24 @ 10:50 UTC (43 minutes ago) Visual Flight Rules
Wind Visibility Clouds
240° at 14 knots 10,000+ meters
  • Few at 600' AGL
  • Few at 1,400' AGL
  • Scattered at 1,800' AGL
Temperatures Readings
Current 0°C / 32°F
Dewpoint 0°C / 32°F
Humidity 100%
Altimeter 29.65" Hg
Pressure 1004 hPa
Elevation 74
METAR EGYP 241050Z 24014KT 9999 FEW006 FEW014CB SCT018 00/M00 Q1004 RESHSN WHT TEMPO 1000 SHSN SCT012CB AMB
Observed Flight Rules
Sep-24 @ 10:50 UTC
(43 minutes ago)
VFR
Wind Visibility
240° at 14 knots 10,000+ meters
Clouds
  • Few at 600' AGL
  • Few at 1,400' AGL
  • Scattered at 1,800' AGL
Temperature Dewpoint
0°C / 32°F 0°C / 32°F
Humidity Altimeter Pressure
100% 29.65" Hg 1004 hPa